ADDS METAR Data INFO
IDs: Format: Raw Decoded Include TAF

Data at: 0322 UTC 16 Dec 2017

KFKS 160315Z AUTO 28007KT 10SM BKN028 OVC095 M05/M10 A2983 RMK AO2 T10461102
KFKS 160255Z AUTO 30010G15KT 10SM BKN026 BKN030 OVC095 M04/M10 A2983 RMK AO2 T10451100
KFKS 160235Z AUTO 30007G15KT 10SM BKN024 OVC032 M04/M09 A2983 RMK AO2 T10421091
KFKS 160215Z AUTO 28008KT 10SM OVC030 M04/M10 A2983 RMK AO2 T10421098
KFKS 160155Z AUTO 28009KT 10SM OVC030 M04/M10 A2984 RMK AO2 T10421096
KFKS 160135Z AUTO 28009KT 10SM BKN030 OVC036 M04/M10 A2983 RMK AO2 T10411103
KFKS 160115Z AUTO 28008KT 10SM BKN030 OVC037 M04/M10 A2983 RMK AO2 T10411097
KFKS 160055Z AUTO 27009KT 10SM BKN028 OVC036 M04/M10 A2982 RMK AO2 T10401102
KFKS 160035Z AUTO 27007KT 10SM BKN028 OVC034 M04/M10 A2982 RMK AO2 T10401097
KFKS 160015Z AUTO 27012G15KT 10SM SCT027 OVC034 M04/M10 A2981 RMK AO2 T10401097
KFKS 152355Z AUTO 28009G15KT 10SM BKN031 OVC038 M04/M10 A2981 RMK AO2 T10401102 11031 21040
KFKS 152335Z AUTO 29008KT 10SM SCT029 BKN035 OVC041 M04/M10 A2980 RMK AO2 T10381105
KFKS 152315Z AUTO 26008G15KT 10SM SCT033 OVC041 M04/M10 A2980 RMK AO2 T10401103
KFKS 152255Z AUTO 27010G15KT 10SM SCT036 OVC043 M04/M10 A2979 RMK AO2 T10401100
KFKS 152235Z AUTO 26007KT 10SM SCT026 SCT031 OVC037 M04/M10 A2979 RMK AO2 T10381097
KFKS 152215Z AUTO 27007G14KT 10SM SCT031 OVC040 M04/M10 A2979 RMK AO2 T10391103
KFKS 152155Z AUTO 30010G15KT 10SM SCT024 BKN036 OVC044 M04/M10 A2979 RMK AO2 T10371096
KFKS 152135Z AUTO 26010G17KT 10SM -SN SCT025 BKN030 OVC045 M04/M09 A2977 RMK AO2 T10361089
KFKS 152115Z AUTO 29012G19KT 10SM SCT027 BKN036 BKN048 M03/M09 A2977 RMK AO2 T10351095
KFKS 152055Z AUTO 28010G19KT 10SM SCT029 BKN036 BKN043 M03/M09 A2977 RMK AO2 T10351095
KFKS 152035Z AUTO 28011G19KT 10SM SCT029 BKN040 OVC050 M03/M09 A2976 RMK AO2 T10351090
KFKS 152015Z AUTO 29011G18KT 10SM SCT023 SCT032 OVC040 M03/M09 A2976 RMK AO2 T10351091
KFKS 151955Z AUTO 28011G18KT 10SM BKN023 BKN031 OVC044 M03/M08 A2976 RMK AO2 T10351085
KFKS 151935Z AUTO 29013G19KT 10SM BKN023 BKN028 OVC043 M03/M08 A2976 RMK AO2 T10321085
KFKS 151915Z AUTO 29013G20KT 10SM SCT025 BKN030 BKN044 M03/M08 A2976 RMK AO2 T10351085
KFKS 151855Z AUTO 29015G19KT 10SM SCT025 BKN031 BKN038 M04/M08 A2975 RMK AO2 T10361085
KFKS 151835Z AUTO 29011G20KT 10SM SCT018 BKN030 BKN042 M03/M08 A2976 RMK AO2 T10351077
KFKS 151815Z AUTO 29011G19KT 10SM SCT020 BKN027 OVC046 M03/M08 A2975 RMK AO2 T10331080
KFKS 151755Z AUTO 30014G21KT 7SM BKN020 OVC027 M03/M08 A2975 RMK AO2 T10351078 11035 21042
KFKS 151735Z AUTO 28011G16KT 10SM BKN020 OVC026 M04/M08 A2976 RMK AO2 T10371080
KFKS 151715Z AUTO 30014G20KT 10SM BKN020 OVC028 M04/M08 A2975 RMK AO2 T10381080
KFKS 151655Z AUTO 29014G22KT 7SM BKN020 OVC027 M04/M08 A2976 RMK AO2 T10381077
KFKS 151635Z AUTO 30012G18KT 7SM -SN BKN022 OVC030 M04/M08 A2976 RMK AO2 T10391081
KFKS 151615Z AUTO 30009G18KT 5SM -SN OVC022 M04/M08 A2976 RMK AO2 T10401080
KFKS 151555Z AUTO 30009G19KT 7SM -SN BKN025 BKN030 OVC036 M04/M08 A2976 RMK AO2 T10401081
KFKS 151535Z AUTO 31013G17KT 10SM SCT024 BKN031 OVC037 M04/M09 A2976 RMK AO2 T10391087
KFKS 151515Z AUTO 31011G17KT 10SM OVC032 M04/M09 A2975 RMK AO2 T10381091
KFKS 151455Z AUTO 28013G17KT 5SM -SN SCT025 OVC034 M04/M08 A2975 RMK AO2 T10401085
KFKS 151435Z AUTO 30011G18KT 10SM -SN SCT025 BKN034 OVC041 M04/M09 A2975 RMK AO2 T10401086
KFKS 151415Z AUTO 30011KT 10SM SCT028 BKN035 OVC043 M04/M09 A2975 RMK AO2 T10401094
KFKS 151355Z AUTO 29014KT 10SM BKN030 OVC038 M04/M09 A2975 RMK AO2 T10401095
KFKS 151335Z AUTO 29012G19KT 10SM BKN030 OVC036 M04/M09 A2975 RMK AO2 T10401092
KFKS 151315Z AUTO 30011G15KT 7SM -SN SCT022 BKN027 OVC038 M04/M08 A2975 RMK AO2 T10391085
KFKS 151255Z AUTO 29016G23KT 7SM -SN SCT012 BKN026 OVC030 M04/M08 A2975 RMK AO2 T10401085
KFKS 151235Z AUTO 29013G18KT 2SM -SN SCT004 SCT011 OVC018 M04/M07 A2976 RMK AO2 T10411066
KFKS 151215Z AUTO 29012G16KT 4SM -SN SCT008 BKN016 OVC021 M04/M07 A2976 RMK AO2 T10401073
KFKS 151155Z AUTO 29015G19KT 1 3/4SM -SN BKN006 OVC014 M04/M06 A2976 RMK AO2 T10401060 11022 21040
KFKS 151135Z AUTO 29011G18KT 1 1/2SM -SN BKN006 OVC013 M04/M06 A2977 RMK AO2 T10391056
KFKS 151115Z AUTO 29011G20KT 1 3/4SM -SN SCT003 BKN007 OVC012 M04/M06 A2977 RMK AO2 T10371056
KFKS 151055Z AUTO 28011G17KT 1 1/2SM -SN BKN010 OVC016 M04/M05 A2977 RMK AO2 T10361055
KFKS 151035Z AUTO 29013G21KT 2 1/2SM -SN BKN013 OVC022 M03/M06 A2977 RMK AO2 T10341057
KFKS 151015Z AUTO 28010G17KT 2 1/2SM -SN BKN013 OVC022 M03/M05 A2978 RMK AO2 T10301052
KFKS 150955Z AUTO 26012G18KT 2SM -SN SCT007 OVC013 M03/M05 A2978 RMK AO2 T10301048
KFKS 150935Z AUTO 26013G19KT 2 1/2SM -SN SCT007 BKN012 OVC019 M03/M05 A2979 RMK AO2 T10271051
KFKS 150915Z AUTO 25009G15KT 220V280 1 1/2SM -SN SCT005 OVC009 M03/M05 A2981 RMK AO2 T10301051
KFKS 150855Z AUTO 26009G21KT 2 1/2SM -SN SCT011 OVC015 M03/M05 A2982 RMK AO2 T10291054
KFKS 150835Z AUTO 26010G16KT 220V280 2SM -SN SCT009 BKN014 OVC019 M03/M05 A2982 RMK AO2 T10281053
KFKS 150815Z AUTO 26010G17KT 210V290 2 1/2SM -SN SCT012 BKN023 OVC036 M03/M06 A2983 RMK AO2 T10271060
KFKS 150755Z AUTO 25010G16KT 10SM SCT024 OVC033 M02/M08 A2984 RMK AO2 T10221079
KFKS 150735Z AUTO 24008G15KT 7SM -SN SCT021 BKN029 OVC036 M02/M08 A2984 RMK AO2 T10221078
KFKS 150715Z AUTO 24008KT 10SM SCT027 OVC034 M02/M08 A2985 RMK AO2 T10221077
KFKS 150655Z AUTO 24009KT 210V270 10SM -SN SCT009 SCT019 OVC034 M02/M07 A2987 RMK AO2 T10251072
KFKS 150635Z AUTO 25008KT 4SM -SN SCT009 BKN021 OVC040 M03/M06 A2988 RMK AO2 T10301063
KFKS 150615Z AUTO 30008KT 5SM -SN SCT016 SCT021 OVC037 M03/M07 A2989 RMK AO2 T10301067
KFKS 150555Z AUTO 27006KT 5SM -SN SCT011 BKN022 OVC037 M03/M07 A2990 RMK AO2 T10301072 11030 21041 410301057
KFKS 150535Z AUTO 27011G18KT 4SM -SN SCT013 BKN026 OVC033 M03/M07 A2991 RMK AO2 T10301067
KFKS 150515Z AUTO 27011G16KT 250V310 7SM -SN BKN022 OVC030 M03/M07 A2992 RMK AO2 T10301073
KFKS 150455Z AUTO 27006KT 5SM -SN SCT013 BKN020 OVC032 M03/M07 A2992 RMK AO2 T10311066
KFKS 150435Z AUTO 26006KT 230V300 5SM -SN SCT021 BKN026 OVC036 M03/M07 A2993 RMK AO2 T10311070
KFKS 150415Z AUTO 25005KT 10SM -SN SCT023 BKN030 OVC038 M03/M07 A2993 RMK AO2 T10321075
KFKS 150355Z AUTO 25006KT 7SM -SN SCT023 OVC028 M03/M08 A2994 RMK AO2 T10321077
KFKS 150335Z AUTO 26007KT 7SM -SN BKN028 OVC034 M03/M08 A2995 RMK AO2 T10321081
KFKS 150315Z AUTO 26005KT 10SM BKN026 OVC033 M03/M09 A2996 RMK AO2 T10311086
KFKS 150255Z AUTO 26006KT 10SM OVC028 M03/M08 A2996 RMK AO2 T10321083
KFKS 150235Z AUTO 26005KT 10SM OVC028 M03/M09 A2997 RMK AO2 T10331090
KFKS 150215Z AUTO 26003KT 10SM OVC028 M03/M09 A2997 RMK AO2 T10351094
KFKS 150155Z AUTO 27004KT 10SM OVC030 M04/M10 A2998 RMK AO2 T10371096
KFKS 150135Z AUTO 27006KT 10SM OVC030 M04/M10 A2998 RMK AO2 T10371098
KFKS 150115Z AUTO 28005KT 10SM OVC030 M04/M10 A2998 RMK AO2 T10381100
KFKS 150055Z AUTO 25003KT 10SM OVC030 M04/M10 A2998 RMK AO2 T10401100
KFKS 150035Z AUTO 28007KT 10SM BKN030 OVC038 M04/M10 A2999 RMK AO2 T10411104
KFKS 150015Z AUTO 29008KT 10SM OVC028 M04/M10 A2999 RMK AO2 T10401100
KFKS 142355Z AUTO 28007KT 10SM OVC030 M04/M10 A2998 RMK AO2 T10401100 11039 21050
KFKS 142335Z AUTO 29006KT 10SM OVC032 M04/M10 A2998 RMK AO2 T10401097
KFKS 142315Z AUTO 28007KT 10SM OVC032 M04/M10 A2999 RMK AO2 T10431104
KFKS 142255Z AUTO 27006KT 10SM OVC030 M04/M10 A2999 RMK AO2 T10431105
KFKS 142235Z AUTO 29005KT 10SM OVC032 M04/M11 A2999 RMK AO2 T10451108
KFKS 142215Z AUTO 28006KT 10SM OVC034 M05/M11 A2998 RMK AO2 T10461110
KFKS 142155Z AUTO 26006KT 10SM BKN032 M05/M11 A2998 RMK AO2 T10501115
KFKS 142135Z AUTO 26005KT 10SM SCT030 M05/M11 A2998 RMK AO2 T10501111
KFKS 142115Z AUTO 27006KT 10SM BKN030 M05/M11 A2998 RMK AO2 T10491109
KFKS 142055Z AUTO 24005KT 10SM OVC028 M04/M11 A2998 RMK AO2 T10451109
KFKS 142035Z AUTO 27003KT 10SM BKN028 OVC032 M04/M10 A2998 RMK AO2 T10411103
KFKS 142015Z AUTO 27006KT 10SM OVC028 M05/M11 A2998 RMK AO2 T10461106
KFKS 141955Z AUTO 28005KT 10SM OVC028 M05/M10 A2998 RMK AO2 T10461102
KFKS 141935Z AUTO 26006KT 10SM -SN OVC028 M04/M10 A2998 RMK AO2 T10451105
KFKS 141915Z AUTO 28006KT 10SM OVC028 M04/M10 A2998 RMK AO2 T10431101
KFKS 141855Z AUTO 29005KT 10SM -SN OVC028 M04/M09 A2998 RMK AO2 T10451095
KFKS 141836Z AUTO 28006KT 10SM OVC030 M04/M11 A2998 RMK AO2 T10451110
KFKS 141815Z AUTO 24008KT 220V300 10SM -SN OVC028 M04/M10 A2998 RMK AO2 T10451100
KFKS 141755Z AUTO 28007KT 5SM -SN OVC026 M04/M09 A2999 RMK AO2 T10451092 11041 21048
KFKS 141736Z AUTO 29008KT 10SM -SN BKN026 OVC033 M04/M10 A2999 RMK AO2 T10431096
KFKS 141715Z AUTO 29009KT 10SM -SN SCT021 OVC030 M04/M09 A2999 RMK AO2 T10421092
KFKS 141655Z AUTO 29007KT 7SM -SN SCT023 OVC032 M04/M09 A3000 RMK AO2 T10421093
KFKS 141635Z AUTO 30006KT 10SM OVC029 M04/M09 A3000 RMK AO2 T10411094
KFKS 141615Z AUTO 31006KT 7SM -SN OVC027 M04/M09 A3000 RMK AO2 T10431089
KFKS 141555Z AUTO 31005KT 10SM -SN OVC029 M04/M09 A2999 RMK AO2 T10421091
KFKS 141536Z AUTO 31007KT 10SM -SN OVC031 M04/M10 A2999 RMK AO2 T10421097